sensor_id;sensor_type;location;lat;lon;timestamp;pressure;altitude;pressure_sealevel;temperature;humidity
56420;BME280;42323;52.170;7.538;2023-09-18T00:01:17;100386.00;;;18.75;nan
56420;BME280;42323;52.170;7.538;2023-09-18T00:03:46;100379.31;;;18.72;nan
56420;BME280;42323;52.170;7.538;2023-09-18T00:08:55;100383.03;;;18.71;nan
56420;BME280;42323;52.170;7.538;2023-09-18T00:11:21;100377.97;;;18.70;nan
56420;BME280;42323;52.170;7.538;2023-09-18T00:13:48;100357.53;;;18.70;nan
56420;BME280;42323;52.170;7.538;2023-09-18T00:16:15;100337.34;;;18.58;nan
56420;BME280;42323;52.170;7.538;2023-09-18T00:18:41;100317.75;;;18.47;nan
56420;BME280;42323;52.170;7.538;2023-09-18T00:21:08;100339.13;;;18.69;nan
56420;BME280;42323;52.170;7.538;2023-09-18T00:23:37;100341.47;;;18.65;nan
56420;BME280;42323;52.170;7.538;2023-09-18T00:26:05;100248.22;;;18.04;nan
56420;BME280;42323;52.170;7.538;2023-09-18T00:28:32;100234.41;;;18.02;nan
56420;BME280;42323;52.170;7.538;2023-09-18T00:31:01;100240.75;;;18.01;nan
56420;BME280;42323;52.170;7.538;2023-09-18T00:33:28;100156.25;;;17.53;nan
56420;BME280;42323;52.170;7.538;2023-09-18T00:35:55;100168.31;;;17.61;nan
56420;BME280;42323;52.170;7.538;2023-09-18T00:38:21;100130.81;;;17.28;nan
56420;BME280;42323;52.170;7.538;2023-09-18T00:40:48;100310.94;;;18.51;nan
56420;BME280;42323;52.170;7.538;2023-09-18T00:43:15;100320.13;;;18.60;nan
56420;BME280;42323;52.170;7.538;2023-09-18T00:45:44;100280.66;;;18.35;nan
56420;BME280;42323;52.170;7.538;2023-09-18T00:48:12;100285.91;;;18.47;nan
56420;BME280;42323;52.170;7.538;2023-09-18T00:50:38;100233.94;;;18.05;nan
56420;BME280;42323;52.170;7.538;2023-09-18T00:53:07;100306.84;;;18.60;nan
56420;BME280;42323;52.170;7.538;2023-09-18T00:55:36;100280.84;;;18.45;nan
56420;BME280;42323;52.170;7.538;2023-09-18T00:58:05;100267.72;;;18.39;nan
56420;BME280;42323;52.170;7.538;2023-09-18T01:00:31;100255.16;;;18.34;nan
56420;BME280;42323;52.170;7.538;2023-09-18T01:02:58;100247.09;;;18.29;nan
56420;BME280;42323;52.170;7.538;2023-09-18T01:05:25;100283.94;;;18.54;nan
56420;BME280;42323;52.170;7.538;2023-09-18T01:07:52;100242.81;;;18.40;nan
56420;BME280;42323;52.170;7.538;2023-09-18T01:10:21;100278.47;;;18.61;nan
56420;BME280;42323;52.170;7.538;2023-09-18T01:12:58;100267.53;;;18.57;nan
56420;BME280;42323;52.170;7.538;2023-09-18T01:15:32;100230.72;;;18.32;nan
56420;BME280;42323;52.170;7.538;2023-09-18T01:17:59;100260.06;;;18.54;nan
56420;BME280;42323;52.170;7.538;2023-09-18T01:20:26;100271.47;;;18.54;nan
56420;BME280;42323;52.170;7.538;2023-09-18T01:22:54;100264.31;;;18.55;nan
56420;BME280;42323;52.170;7.538;2023-09-18T01:25:20;100263.50;;;18.54;nan
56420;BME280;42323;52.170;7.538;2023-09-18T01:27:47;100229.56;;;18.40;nan
56420;BME280;42323;52.170;7.538;2023-09-18T01:30:13;100248.13;;;18.56;nan
56420;BME280;42323;52.170;7.538;2023-09-18T01:32:43;100233.97;;;18.51;nan
56420;BME280;42323;52.170;7.538;2023-09-18T01:35:10;100214.34;;;18.35;nan
56420;BME280;42323;52.170;7.538;2023-09-18T01:37:39;100223.19;;;18.41;nan
56420;BME280;42323;52.170;7.538;2023-09-18T01:40:07;100217.97;;;18.46;nan
56420;BME280;42323;52.170;7.538;2023-09-18T01:42:34;100226.03;;;18.51;nan
56420;BME280;42323;52.170;7.538;2023-09-18T01:45:02;100203.81;;;18.40;nan
56420;BME280;42323;52.170;7.538;2023-09-18T01:47:29;100188.94;;;18.39;nan
56420;BME280;42323;52.170;7.538;2023-09-18T01:49:56;100193.22;;;18.40;nan
56420;BME280;42323;52.170;7.538;2023-09-18T01:52:22;100204.31;;;18.54;nan
56420;BME280;42323;52.170;7.538;2023-09-18T01:54:49;100189.19;;;18.54;nan
56420;BME280;42323;52.170;7.538;2023-09-18T01:57:16;100200.69;;;18.72;nan
56420;BME280;42323;52.170;7.538;2023-09-18T01:59:42;100210.31;;;18.78;nan
56420;BME280;42323;52.170;7.538;2023-09-18T02:02:10;100178.88;;;18.70;nan
56420;BME280;42323;52.170;7.538;2023-09-18T02:04:42;100190.72;;;18.79;nan
56420;BME280;42323;52.170;7.538;2023-09-18T02:07:28;100190.53;;;18.86;nan
56420;BME280;42323;52.170;7.538;2023-09-18T02:09:55;100197.44;;;18.87;nan
56420;BME280;42323;52.170;7.538;2023-09-18T02:12:22;100170.50;;;18.78;nan
56420;BME280;42323;52.170;7.538;2023-09-18T02:14:48;100179.59;;;18.82;nan
56420;BME280;42323;52.170;7.538;2023-09-18T02:17:15;100177.44;;;18.79;nan
56420;BME280;42323;52.170;7.538;2023-09-18T02:19:41;100172.34;;;18.77;nan
56420;BME280;42323;52.170;7.538;2023-09-18T02:22:09;100174.72;;;18.74;nan
56420;BME280;42323;52.170;7.538;2023-09-18T02:24:35;100170.69;;;18.71;nan
56420;BME280;42323;52.170;7.538;2023-09-18T02:27:05;100150.28;;;18.60;nan
56420;BME280;42323;52.170;7.538;2023-09-18T02:29:32;100158.34;;;18.65;nan
56420;BME280;42323;52.170;7.538;2023-09-18T02:31:59;100162.28;;;18.63;nan
56420;BME280;42323;52.170;7.538;2023-09-18T02:34:26;100141.19;;;18.56;nan
56420;BME280;42323;52.170;7.538;2023-09-18T02:36:52;100147.00;;;18.53;nan
56420;BME280;42323;52.170;7.538;2023-09-18T02:39:19;100141.44;;;18.54;nan
56420;BME280;42323;52.170;7.538;2023-09-18T02:41:45;100138.00;;;18.54;nan
56420;BME280;42323;52.170;7.538;2023-09-18T02:44:12;100136.28;;;18.65;nan
56420;BME280;42323;52.170;7.538;2023-09-18T02:46:39;100141.81;;;18.75;nan
56420;BME280;42323;52.170;7.538;2023-09-18T02:49:06;100116.44;;;18.67;nan
56420;BME280;42323;52.170;7.538;2023-09-18T02:51:32;100120.25;;;18.71;nan
56420;BME280;42323;52.170;7.538;2023-09-18T02:53:59;100094.81;;;18.59;nan
56420;BME280;42323;52.170;7.538;2023-09-18T02:56:25;100120.66;;;18.80;nan
56420;BME280;42323;52.170;7.538;2023-09-18T02:58:52;100109.44;;;18.78;nan
56420;BME280;42323;52.170;7.538;2023-09-18T03:01:19;100108.25;;;18.86;nan
56420;BME280;42323;52.170;7.538;2023-09-18T03:03:45;100110.66;;;18.87;nan
56420;BME280;42323;52.170;7.538;2023-09-18T03:06:12;100097.88;;;18.84;nan
56420;BME280;42323;52.170;7.538;2023-09-18T03:08:39;100098.19;;;18.88;nan
56420;BME280;42323;52.170;7.538;2023-09-18T03:11:13;100086.53;;;18.89;nan
56420;BME280;42323;52.170;7.538;2023-09-18T03:13:45;100068.84;;;18.77;nan
56420;BME280;42323;52.170;7.538;2023-09-18T03:16:13;100063.44;;;18.72;nan
56420;BME280;42323;52.170;7.538;2023-09-18T03:18:40;100042.38;;;18.66;nan
56420;BME280;42323;52.170;7.538;2023-09-18T03:21:06;100043.81;;;18.73;nan
56420;BME280;42323;52.170;7.538;2023-09-18T03:23:33;100059.66;;;18.85;nan
56420;BME280;42323;52.170;7.538;2023-09-18T03:26:00;100046.38;;;18.85;nan
56420;BME280;42323;52.170;7.538;2023-09-18T03:28:26;100019.19;;;18.78;nan
56420;BME280;42323;52.170;7.538;2023-09-18T03:30:53;100007.06;;;18.65;nan
56420;BME280;42323;52.170;7.538;2023-09-18T03:33:19;100023.59;;;18.89;nan
56420;BME280;42323;52.170;7.538;2023-09-18T03:35:51;100008.66;;;18.83;nan
56420;BME280;42323;52.170;7.538;2023-09-18T03:38:17;100016.38;;;18.85;nan
56420;BME280;42323;52.170;7.538;2023-09-18T03:40:44;100003.09;;;18.85;nan
56420;BME280;42323;52.170;7.538;2023-09-18T03:43:11;99968.88;;;18.66;nan
56420;BME280;42323;52.170;7.538;2023-09-18T03:48:09;99858.25;;;18.06;nan
56420;BME280;42323;52.170;7.538;2023-09-18T03:50:39;99965.63;;;18.81;nan
56420;BME280;42323;52.170;7.538;2023-09-18T03:53:07;99831.41;;;18.02;nan
56420;BME280;42323;52.170;7.538;2023-09-18T04:08:57;99967.91;;;18.94;nan
56420;BME280;42323;52.170;7.538;2023-09-18T04:11:23;99944.44;;;18.86;nan
56420;BME280;42323;52.170;7.538;2023-09-18T04:13:52;99959.75;;;19.01;nan
56420;BME280;42323;52.170;7.538;2023-09-18T04:16:19;99937.72;;;19.00;nan
56420;BME280;42323;52.170;7.538;2023-09-18T04:18:45;99947.09;;;19.08;nan
56420;BME280;42323;52.170;7.538;2023-09-18T04:21:12;99940.91;;;19.02;nan
56420;BME280;42323;52.170;7.538;2023-09-18T04:23:38;99936.66;;;19.01;nan
56420;BME280;42323;52.170;7.538;2023-09-18T04:26:05;99945.78;;;19.11;nan
56420;BME280;42323;52.170;7.538;2023-09-18T04:28:32;99933.56;;;19.10;nan
56420;BME280;42323;52.170;7.538;2023-09-18T04:30:58;99916.97;;;18.97;nan
56420;BME280;42323;52.170;7.538;2023-09-18T04:33:25;99917.22;;;18.96;nan
56420;BME280;42323;52.170;7.538;2023-09-18T04:35:52;99929.75;;;19.00;nan
56420;BME280;42323;52.170;7.538;2023-09-18T04:38:18;99906.88;;;18.99;nan
56420;BME280;42323;52.170;7.538;2023-09-18T04:40:45;99888.47;;;18.88;nan
56420;BME280;42323;52.170;7.538;2023-09-18T04:43:12;99860.44;;;18.75;nan
56420;BME280;42323;52.170;7.538;2023-09-18T04:45:39;99877.09;;;18.92;nan
56420;BME280;42323;52.170;7.538;2023-09-18T04:48:05;99878.69;;;18.93;nan
56420;BME280;42323;52.170;7.538;2023-09-18T04:50:32;99856.78;;;18.81;nan
56420;BME280;42323;52.170;7.538;2023-09-18T04:53:00;99868.13;;;18.98;nan
56420;BME280;42323;52.170;7.538;2023-09-18T04:55:27;99845.69;;;18.84;nan
56420;BME280;42323;52.170;7.538;2023-09-18T04:57:53;99885.16;;;19.02;nan
56420;BME280;42323;52.170;7.538;2023-09-18T05:00:20;99887.31;;;19.05;nan
56420;BME280;42323;52.170;7.538;2023-09-18T05:02:49;99897.19;;;19.10;nan
56420;BME280;42323;52.170;7.538;2023-09-18T05:05:16;99891.03;;;19.04;nan
56420;BME280;42323;52.170;7.538;2023-09-18T05:07:44;99889.63;;;18.97;nan
56420;BME280;42323;52.170;7.538;2023-09-18T05:10:11;99909.50;;;18.94;nan
56420;BME280;42323;52.170;7.538;2023-09-18T05:12:38;99899.16;;;18.71;nan
56420;BME280;42323;52.170;7.538;2023-09-18T05:15:06;99908.72;;;18.72;nan
56420;BME280;42323;52.170;7.538;2023-09-18T05:17:44;99898.25;;;18.65;nan
56420;BME280;42323;52.170;7.538;2023-09-18T05:20:15;99885.72;;;18.61;nan
56420;BME280;42323;52.170;7.538;2023-09-18T05:22:43;99862.47;;;18.46;nan
56420;BME280;42323;52.170;7.538;2023-09-18T05:25:11;99891.69;;;18.51;nan
56420;BME280;42323;52.170;7.538;2023-09-18T05:27:38;99911.06;;;18.51;nan
56420;BME280;42323;52.170;7.538;2023-09-18T05:30:14;99897.50;;;18.48;nan
56420;BME280;42323;52.170;7.538;2023-09-18T05:32:42;99907.81;;;18.44;nan
56420;BME280;42323;52.170;7.538;2023-09-18T05:35:10;99921.69;;;18.51;nan
56420;BME280;42323;52.170;7.538;2023-09-18T05:37:39;99908.94;;;18.48;nan
56420;BME280;42323;52.170;7.538;2023-09-18T05:40:07;99902.00;;;18.47;nan
56420;BME280;42323;52.170;7.538;2023-09-18T05:42:38;99916.69;;;18.55;nan
56420;BME280;42323;52.170;7.538;2023-09-18T05:45:06;99903.53;;;18.43;nan
56420;BME280;42323;52.170;7.538;2023-09-18T05:47:33;99928.09;;;18.55;nan
56420;BME280;42323;52.170;7.538;2023-09-18T05:50:00;99946.69;;;18.55;nan
56420;BME280;42323;52.170;7.538;2023-09-18T05:52:26;99944.75;;;18.51;nan
56420;BME280;42323;52.170;7.538;2023-09-18T05:54:53;99944.03;;;18.55;nan
56420;BME280;42323;52.170;7.538;2023-09-18T05:57:19;99938.19;;;18.53;nan
56420;BME280;42323;52.170;7.538;2023-09-18T05:59:46;99919.44;;;18.43;nan
56420;BME280;42323;52.170;7.538;2023-09-18T06:02:12;99922.69;;;18.45;nan
56420;BME280;42323;52.170;7.538;2023-09-18T06:04:42;99939.63;;;18.61;nan
56420;BME280;42323;52.170;7.538;2023-09-18T06:07:09;99930.91;;;18.66;nan
56420;BME280;42323;52.170;7.538;2023-09-18T06:09:36;99926.34;;;18.61;nan
56420;BME280;42323;52.170;7.538;2023-09-18T06:12:02;99921.84;;;18.62;nan
56420;BME280;42323;52.170;7.538;2023-09-18T06:14:31;99942.41;;;18.71;nan
56420;BME280;42323;52.170;7.538;2023-09-18T06:17:01;99948.53;;;18.72;nan
56420;BME280;42323;52.170;7.538;2023-09-18T06:19:28;99936.44;;;18.64;nan
56420;BME280;42323;52.170;7.538;2023-09-18T06:21:54;99944.31;;;18.76;nan
56420;BME280;42323;52.170;7.538;2023-09-18T06:24:21;99925.09;;;18.69;nan
56420;BME280;42323;52.170;7.538;2023-09-18T06:26:47;99941.50;;;18.83;nan
56420;BME280;42323;52.170;7.538;2023-09-18T06:29:14;99929.50;;;18.80;nan
56420;BME280;42323;52.170;7.538;2023-09-18T06:31:40;99945.81;;;18.89;nan
56420;BME280;42323;52.170;7.538;2023-09-18T06:34:07;99944.75;;;18.90;nan
56420;BME280;42323;52.170;7.538;2023-09-18T06:36:34;99939.13;;;18.86;nan
56420;BME280;42323;52.170;7.538;2023-09-18T06:39:02;99953.84;;;18.94;nan
56420;BME280;42323;52.170;7.538;2023-09-18T06:41:29;99948.13;;;19.07;nan
56420;BME280;42323;52.170;7.538;2023-09-18T06:43:55;99944.78;;;19.17;nan
56420;BME280;42323;52.170;7.538;2023-09-18T06:46:23;99914.41;;;19.08;nan
56420;BME280;42323;52.170;7.538;2023-09-18T06:48:50;99936.44;;;19.30;nan
56420;BME280;42323;52.170;7.538;2023-09-18T06:51:18;99953.22;;;19.36;nan
56420;BME280;42323;52.170;7.538;2023-09-18T06:53:49;99945.03;;;19.42;nan
56420;BME280;42323;52.170;7.538;2023-09-18T06:56:17;99938.41;;;19.40;nan
56420;BME280;42323;52.170;7.538;2023-09-18T06:58:43;99927.25;;;19.43;nan
56420;BME280;42323;52.170;7.538;2023-09-18T07:01:10;99945.16;;;19.52;nan
56420;BME280;42323;52.170;7.538;2023-09-18T07:03:48;99939.63;;;19.59;nan
56420;BME280;42323;52.170;7.538;2023-09-18T07:06:15;99937.09;;;19.69;nan
56420;BME280;42323;52.170;7.538;2023-09-18T07:08:48;99957.03;;;19.72;nan
56420;BME280;42323;52.170;7.538;2023-09-18T07:11:18;99963.50;;;19.81;nan
56420;BME280;42323;52.170;7.538;2023-09-18T07:13:45;99956.03;;;19.78;nan
56420;BME280;42323;52.170;7.538;2023-09-18T07:16:11;99953.47;;;19.88;nan
56420;BME280;42323;52.170;7.538;2023-09-18T07:18:38;99885.94;;;19.57;nan
56420;BME280;42323;52.170;7.538;2023-09-18T07:21:04;99934.97;;;20.03;nan
56420;BME280;42323;52.170;7.538;2023-09-18T07:23:31;99933.63;;;20.06;nan
56420;BME280;42323;52.170;7.538;2023-09-18T07:25:58;99928.03;;;20.02;nan
56420;BME280;42323;52.170;7.538;2023-09-18T07:28:25;99940.88;;;20.16;nan
56420;BME280;42323;52.170;7.538;2023-09-18T07:30:51;99955.88;;;20.27;nan
56420;BME280;42323;52.170;7.538;2023-09-18T07:33:18;99965.22;;;20.35;nan
56420;BME280;42323;52.170;7.538;2023-09-18T07:35:47;99948.38;;;20.24;nan
56420;BME280;42323;52.170;7.538;2023-09-18T07:38:14;99976.25;;;20.48;nan
56420;BME280;42323;52.170;7.538;2023-09-18T07:40:41;99985.84;;;20.54;nan
56420;BME280;42323;52.170;7.538;2023-09-18T07:43:08;99983.25;;;20.60;nan
56420;BME280;42323;52.170;7.538;2023-09-18T07:45:37;99955.78;;;20.59;nan
56420;BME280;42323;52.170;7.538;2023-09-18T07:48:04;99980.13;;;20.73;nan
56420;BME280;42323;52.170;7.538;2023-09-18T07:50:33;99987.78;;;20.64;nan
56420;BME280;42323;52.170;7.538;2023-09-18T07:53:00;99997.69;;;20.74;nan
56420;BME280;42323;52.170;7.538;2023-09-18T07:55:27;99992.66;;;20.77;nan
56420;BME280;42323;52.170;7.538;2023-09-18T07:57:54;99963.84;;;20.69;nan
56420;BME280;42323;52.170;7.538;2023-09-18T08:00:21;99983.94;;;20.97;nan
56420;BME280;42323;52.170;7.538;2023-09-18T08:02:49;99976.50;;;21.04;nan
56420;BME280;42323;52.170;7.538;2023-09-18T08:05:16;99986.69;;;21.23;nan
56420;BME280;42323;52.170;7.538;2023-09-18T08:07:43;99989.13;;;21.29;nan
56420;BME280;42323;52.170;7.538;2023-09-18T08:10:10;99981.16;;;21.40;nan
56420;BME280;42323;52.170;7.538;2023-09-18T08:12:39;99985.47;;;21.51;nan
56420;BME280;42323;52.170;7.538;2023-09-18T08:15:06;99983.03;;;21.49;nan
56420;BME280;42323;52.170;7.538;2023-09-18T08:17:33;99992.94;;;21.59;nan
56420;BME280;42323;52.170;7.538;2023-09-18T08:20:00;100002.28;;;21.72;nan
56420;BME280;42323;52.170;7.538;2023-09-18T08:22:26;99970.53;;;21.75;nan
56420;BME280;42323;52.170;7.538;2023-09-18T08:24:53;99971.34;;;21.86;nan
56420;BME280;42323;52.170;7.538;2023-09-18T08:27:20;99966.53;;;21.88;nan
56420;BME280;42323;52.170;7.538;2023-09-18T08:29:47;99986.28;;;21.97;nan
56420;BME280;42323;52.170;7.538;2023-09-18T08:32:13;99975.88;;;21.91;nan
56420;BME280;42323;52.170;7.538;2023-09-18T08:34:40;99967.59;;;21.87;nan
56420;BME280;42323;52.170;7.538;2023-09-18T08:37:06;100001.75;;;22.05;nan
56420;BME280;42323;52.170;7.538;2023-09-18T08:39:35;100016.19;;;21.99;nan
56420;BME280;42323;52.170;7.538;2023-09-18T08:42:05;100018.81;;;21.84;nan
56420;BME280;42323;52.170;7.538;2023-09-18T08:44:34;100035.88;;;21.73;nan
56420;BME280;42323;52.170;7.538;2023-09-18T08:47:05;100015.59;;;21.67;nan
56420;BME280;42323;52.170;7.538;2023-09-18T08:49:33;100002.81;;;21.79;nan
56420;BME280;42323;52.170;7.538;2023-09-18T08:52:01;100019.88;;;21.88;nan
56420;BME280;42323;52.170;7.538;2023-09-18T08:54:28;100038.56;;;21.73;nan
56420;BME280;42323;52.170;7.538;2023-09-18T08:56:55;100043.56;;;21.49;nan
56420;BME280;42323;52.170;7.538;2023-09-18T08:59:25;100027.22;;;21.30;nan
56420;BME280;42323;52.170;7.538;2023-09-18T09:01:51;100027.44;;;21.23;nan
56420;BME280;42323;52.170;7.538;2023-09-18T09:04:18;100010.06;;;21.05;nan
56420;BME280;42323;52.170;7.538;2023-09-18T09:06:45;100030.88;;;21.14;nan
56420;BME280;42323;52.170;7.538;2023-09-18T09:09:12;100013.00;;;21.04;nan
56420;BME280;42323;52.170;7.538;2023-09-18T09:11:39;100007.41;;;21.05;nan
56420;BME280;42323;52.170;7.538;2023-09-18T09:14:10;100015.47;;;21.26;nan
56420;BME280;42323;52.170;7.538;2023-09-18T09:16:49;100011.28;;;21.40;nan
56420;BME280;42323;52.170;7.538;2023-09-18T09:19:17;99973.38;;;21.28;nan
56420;BME280;42323;52.170;7.538;2023-09-18T09:21:44;99980.66;;;21.58;nan
56420;BME280;42323;52.170;7.538;2023-09-18T09:24:11;100019.09;;;21.83;nan
56420;BME280;42323;52.170;7.538;2023-09-18T09:26:41;100014.81;;;22.02;nan
56420;BME280;42323;52.170;7.538;2023-09-18T09:29:16;100017.53;;;22.22;nan
56420;BME280;42323;52.170;7.538;2023-09-18T09:31:45;100022.06;;;22.27;nan
56420;BME280;42323;52.170;7.538;2023-09-18T09:34:12;100001.50;;;22.17;nan
56420;BME280;42323;52.170;7.538;2023-09-18T09:36:54;99990.31;;;22.15;nan
56420;BME280;42323;52.170;7.538;2023-09-18T09:39:20;100011.66;;;22.20;nan
56420;BME280;42323;52.170;7.538;2023-09-18T09:41:52;100010.56;;;22.06;nan
56420;BME280;42323;52.170;7.538;2023-09-18T09:44:19;100016.72;;;22.17;nan
56420;BME280;42323;52.170;7.538;2023-09-18T09:46:48;100011.91;;;22.19;nan
56420;BME280;42323;52.170;7.538;2023-09-18T09:49:15;100014.84;;;22.27;nan
56420;BME280;42323;52.170;7.538;2023-09-18T09:51:42;100015.66;;;22.28;nan
56420;BME280;42323;52.170;7.538;2023-09-18T09:54:09;100016.72;;;22.22;nan
56420;BME280;42323;52.170;7.538;2023-09-18T09:59:11;100031.09;;;22.57;nan
56420;BME280;42323;52.170;7.538;2023-09-18T10:01:38;100027.94;;;22.29;nan
56420;BME280;42323;52.170;7.538;2023-09-18T10:04:12;100031.66;;;22.08;nan
56420;BME280;42323;52.170;7.538;2023-09-18T10:06:52;100039.66;;;22.02;nan
56420;BME280;42323;52.170;7.538;2023-09-18T10:09:20;100019.38;;;21.86;nan
56420;BME280;42323;52.170;7.538;2023-09-18T10:11:51;100031.09;;;22.05;nan
56420;BME280;42323;52.170;7.538;2023-09-18T10:14:20;100036.44;;;22.05;nan
56420;BME280;42323;52.170;7.538;2023-09-18T10:16:53;100055.16;;;22.36;nan
56420;BME280;42323;52.170;7.538;2023-09-18T10:19:40;100053.28;;;22.52;nan
56420;BME280;42323;52.170;7.538;2023-09-18T10:22:19;100043.94;;;22.54;nan
56420;BME280;42323;52.170;7.538;2023-09-18T10:24:50;100055.06;;;22.97;nan
56420;BME280;42323;52.170;7.538;2023-09-18T10:27:20;100042.97;;;23.75;nan
56420;BME280;42323;52.170;7.538;2023-09-18T10:29:49;100057.97;;;23.71;nan
56420;BME280;42323;52.170;7.538;2023-09-18T10:32:18;100062.34;;;23.46;nan
56420;BME280;42323;52.170;7.538;2023-09-18T10:34:47;100062.28;;;23.57;nan
56420;BME280;42323;52.170;7.538;2023-09-18T10:37:15;100047.19;;;23.26;nan
56420;BME280;42323;52.170;7.538;2023-09-18T10:39:42;100058.75;;;23.12;nan
56420;BME280;42323;52.170;7.538;2023-09-18T10:42:12;100055.59;;;22.99;nan
56420;BME280;42323;52.170;7.538;2023-09-18T10:44:40;100062.84;;;22.94;nan
56420;BME280;42323;52.170;7.538;2023-09-18T10:47:10;100053.75;;;22.85;nan
56420;BME280;42323;52.170;7.538;2023-09-18T10:49:37;100051.59;;;22.87;nan
56420;BME280;42323;52.170;7.538;2023-09-18T10:52:04;100050.25;;;22.99;nan
56420;BME280;42323;52.170;7.538;2023-09-18T10:54:31;100037.06;;;23.23;nan
56420;BME280;42323;52.170;7.538;2023-09-18T10:56:59;100055.75;;;23.28;nan
56420;BME280;42323;52.170;7.538;2023-09-18T10:59:28;100053.06;;;23.34;nan
56420;BME280;42323;52.170;7.538;2023-09-18T11:01:55;100051.16;;;23.39;nan
56420;BME280;42323;52.170;7.538;2023-09-18T11:04:23;100067.16;;;23.49;nan
56420;BME280;42323;52.170;7.538;2023-09-18T11:09:27;100034.38;;;24.12;nan
56420;BME280;42323;52.170;7.538;2023-09-18T11:12:03;100043.31;;;24.61;nan
56420;BME280;42323;52.170;7.538;2023-09-18T11:14:48;100044.56;;;25.40;nan
56420;BME280;42323;52.170;7.538;2023-09-18T11:17:38;100044.38;;;26.26;nan
56420;BME280;42323;52.170;7.538;2023-09-18T11:20:24;100043.91;;;26.05;nan
56420;BME280;42323;52.170;7.538;2023-09-18T11:22:58;100033.41;;;26.22;nan
56420;BME280;42323;52.170;7.538;2023-09-18T11:25:40;100042.75;;;26.85;nan
56420;BME280;42323;52.170;7.538;2023-09-18T11:28:23;100051.19;;;27.84;nan
56420;BME280;42323;52.170;7.538;2023-09-18T11:30:55;100055.63;;;27.66;nan
56420;BME280;42323;52.170;7.538;2023-09-18T11:33:34;100054.88;;;28.64;nan
56420;BME280;42323;52.170;7.538;2023-09-18T11:36:09;100072.50;;;28.16;nan
56420;BME280;42323;52.170;7.538;2023-09-18T11:38:54;100035.59;;;29.45;nan
56420;BME280;42323;52.170;7.538;2023-09-18T11:43:52;100020.00;;;29.94;nan
56420;BME280;42323;52.170;7.538;2023-09-18T11:46:44;100036.03;;;30.08;nan
56420;BME280;42323;52.170;7.538;2023-09-18T11:49:11;100064.34;;;30.75;nan
56420;BME280;42323;52.170;7.538;2023-09-18T11:51:46;100031.28;;;29.87;nan
56420;BME280;42323;52.170;7.538;2023-09-18T11:54:13;100030.16;;;30.23;nan
56420;BME280;42323;52.170;7.538;2023-09-18T11:56:41;100037.75;;;30.68;nan
56420;BME280;42323;52.170;7.538;2023-09-18T11:59:08;100027.13;;;31.31;nan
56420;BME280;42323;52.170;7.538;2023-09-18T12:01:36;100014.59;;;31.59;nan
56420;BME280;42323;52.170;7.538;2023-09-18T12:04:06;100033.16;;;31.90;nan
56420;BME280;42323;52.170;7.538;2023-09-18T12:06:36;100036.69;;;32.03;nan
56420;BME280;42323;52.170;7.538;2023-09-18T12:09:03;100047.81;;;31.27;nan
56420;BME280;42323;52.170;7.538;2023-09-18T12:11:30;100048.72;;;28.72;nan
56420;BME280;42323;52.170;7.538;2023-09-18T12:13:56;100048.81;;;27.32;nan
56420;BME280;42323;52.170;7.538;2023-09-18T12:16:24;100029.22;;;26.90;nan
56420;BME280;42323;52.170;7.538;2023-09-18T12:18:52;100058.00;;;25.97;nan
56420;BME280;42323;52.170;7.538;2023-09-18T12:21:18;100043.25;;;25.19;nan
56420;BME280;42323;52.170;7.538;2023-09-18T12:23:45;100063.47;;;25.30;nan
56420;BME280;42323;52.170;7.538;2023-09-18T12:26:14;100055.63;;;25.34;nan
56420;BME280;42323;52.170;7.538;2023-09-18T12:28:44;100033.16;;;27.70;nan
56420;BME280;42323;52.170;7.538;2023-09-18T12:31:15;100021.91;;;29.33;nan
56420;BME280;42323;52.170;7.538;2023-09-18T12:33:43;100026.16;;;30.12;nan
56420;BME280;42323;52.170;7.538;2023-09-18T12:36:10;100041.53;;;30.37;nan
56420;BME280;42323;52.170;7.538;2023-09-18T12:38:37;100028.09;;;29.33;nan
56420;BME280;42323;52.170;7.538;2023-09-18T12:41:04;100031.28;;;29.87;nan
56420;BME280;42323;52.170;7.538;2023-09-18T12:43:41;100034.31;;;29.42;nan
56420;BME280;42323;52.170;7.538;2023-09-18T12:46:08;100034.88;;;28.03;nan
56420;BME280;42323;52.170;7.538;2023-09-18T12:48:39;100038.09;;;27.05;nan
56420;BME280;42323;52.170;7.538;2023-09-18T12:51:11;100017.16;;;26.46;nan
56420;BME280;42323;52.170;7.538;2023-09-18T12:53:38;100041.84;;;26.16;nan
56420;BME280;42323;52.170;7.538;2023-09-18T12:56:07;100038.41;;;25.77;nan
56420;BME280;42323;52.170;7.538;2023-09-18T12:58:35;100037.81;;;25.43;nan
56420;BME280;42323;52.170;7.538;2023-09-18T13:01:14;100043.88;;;25.11;nan
56420;BME280;42323;52.170;7.538;2023-09-18T13:03:45;100037.75;;;25.48;nan
56420;BME280;42323;52.170;7.538;2023-09-18T13:06:17;100031.50;;;26.56;nan
56420;BME280;42323;52.170;7.538;2023-09-18T13:08:45;100023.00;;;26.02;nan
56420;BME280;42323;52.170;7.538;2023-09-18T13:11:12;100025.22;;;25.81;nan
56420;BME280;42323;52.170;7.538;2023-09-18T13:13:40;100017.34;;;27.19;nan
56420;BME280;42323;52.170;7.538;2023-09-18T13:16:08;99977.09;;;29.40;nan
56420;BME280;42323;52.170;7.538;2023-09-18T13:18:38;100002.16;;;30.19;nan
56420;BME280;42323;52.170;7.538;2023-09-18T13:21:11;100011.59;;;29.52;nan
56420;BME280;42323;52.170;7.538;2023-09-18T13:23:38;100004.88;;;28.97;nan
56420;BME280;42323;52.170;7.538;2023-09-18T13:26:06;99986.31;;;28.56;nan
56420;BME280;42323;52.170;7.538;2023-09-18T13:28:35;100000.69;;;28.12;nan
56420;BME280;42323;52.170;7.538;2023-09-18T13:31:03;100007.41;;;30.24;nan
56420;BME280;42323;52.170;7.538;2023-09-18T13:33:31;99990.88;;;31.14;nan
56420;BME280;42323;52.170;7.538;2023-09-18T13:36:01;99987.06;;;31.15;nan
56420;BME280;42323;52.170;7.538;2023-09-18T13:38:27;99983.38;;;32.07;nan
56420;BME280;42323;52.170;7.538;2023-09-18T13:40:54;99974.16;;;32.33;nan
56420;BME280;42323;52.170;7.538;2023-09-18T13:43:21;99955.91;;;33.07;nan
56420;BME280;42323;52.170;7.538;2023-09-18T13:45:49;99970.50;;;33.70;nan
56420;BME280;42323;52.170;7.538;2023-09-18T13:48:20;99954.19;;;33.14;nan